sensor_id;sensor_type;location;lat;lon;timestamp;temperature;humidity
9125;DHT22;4597;48.730;9.114;2022-08-14T00:01:10;19.60;44.80
9125;DHT22;4597;48.730;9.114;2022-08-14T00:03:36;19.50;45.70
9125;DHT22;4597;48.730;9.114;2022-08-14T00:06:03;19.50;46.00
9125;DHT22;4597;48.730;9.114;2022-08-14T00:08:29;19.50;46.50
9125;DHT22;4597;48.730;9.114;2022-08-14T00:10:55;19.40;46.70
9125;DHT22;4597;48.730;9.114;2022-08-14T00:13:23;19.30;46.90
9125;DHT22;4597;48.730;9.114;2022-08-14T00:15:51;19.30;47.20
9125;DHT22;4597;48.730;9.114;2022-08-14T00:18:20;19.30;47.50
9125;DHT22;4597;48.730;9.114;2022-08-14T00:20:47;19.30;47.60
9125;DHT22;4597;48.730;9.114;2022-08-14T00:23:14;19.20;47.80
9125;DHT22;4597;48.730;9.114;2022-08-14T00:25:42;19.10;47.80
9125;DHT22;4597;48.730;9.114;2022-08-14T00:28:11;19.10;47.90
9125;DHT22;4597;48.730;9.114;2022-08-14T00:30:36;19.00;48.20
9125;DHT22;4597;48.730;9.114;2022-08-14T00:33:02;19.00;48.70
9125;DHT22;4597;48.730;9.114;2022-08-14T00:35:29;18.90;48.90
9125;DHT22;4597;48.730;9.114;2022-08-14T00:37:55;18.90;49.10
9125;DHT22;4597;48.730;9.114;2022-08-14T00:40:21;18.80;49.40
9125;DHT22;4597;48.730;9.114;2022-08-14T00:42:47;18.80;49.70
9125;DHT22;4597;48.730;9.114;2022-08-14T00:45:13;18.80;50.10
9125;DHT22;4597;48.730;9.114;2022-08-14T00:47:41;18.80;50.40
9125;DHT22;4597;48.730;9.114;2022-08-14T00:50:10;18.70;50.70
9125;DHT22;4597;48.730;9.114;2022-08-14T00:52:36;18.70;50.90
9125;DHT22;4597;48.730;9.114;2022-08-14T00:55:05;18.70;51.20
9125;DHT22;4597;48.730;9.114;2022-08-14T00:57:32;18.70;51.70
9125;DHT22;4597;48.730;9.114;2022-08-14T00:59:58;18.70;51.50
9125;DHT22;4597;48.730;9.114;2022-08-14T01:02:25;18.70;52.00
9125;DHT22;4597;48.730;9.114;2022-08-14T01:04:53;18.60;52.10
9125;DHT22;4597;48.730;9.114;2022-08-14T01:07:21;18.60;52.60
9125;DHT22;4597;48.730;9.114;2022-08-14T01:09:57;18.60;53.20
9125;DHT22;4597;48.730;9.114;2022-08-14T01:12:25;18.60;53.10
9125;DHT22;4597;48.730;9.114;2022-08-14T01:14:51;18.60;53.30
9125;DHT22;4597;48.730;9.114;2022-08-14T01:17:20;18.50;53.50
9125;DHT22;4597;48.730;9.114;2022-08-14T01:19:46;18.50;53.70
9125;DHT22;4597;48.730;9.114;2022-08-14T01:22:30;18.50;54.20
9125;DHT22;4597;48.730;9.114;2022-08-14T01:24:56;18.50;55.00
9125;DHT22;4597;48.730;9.114;2022-08-14T01:27:22;18.50;55.00
9125;DHT22;4597;48.730;9.114;2022-08-14T01:29:52;18.40;55.10
9125;DHT22;4597;48.730;9.114;2022-08-14T01:32:18;18.30;55.60
9125;DHT22;4597;48.730;9.114;2022-08-14T01:34:50;18.30;56.00
9125;DHT22;4597;48.730;9.114;2022-08-14T01:37:18;18.30;56.80
9125;DHT22;4597;48.730;9.114;2022-08-14T01:39:44;18.20;57.40
9125;DHT22;4597;48.730;9.114;2022-08-14T01:42:09;18.20;57.70
9125;DHT22;4597;48.730;9.114;2022-08-14T01:44:35;18.10;58.30
9125;DHT22;4597;48.730;9.114;2022-08-14T01:47:06;18.10;58.80
9125;DHT22;4597;48.730;9.114;2022-08-14T01:49:39;18.10;58.80
9125;DHT22;4597;48.730;9.114;2022-08-14T01:52:05;18.00;59.20
9125;DHT22;4597;48.730;9.114;2022-08-14T01:54:31;18.00;59.80
9125;DHT22;4597;48.730;9.114;2022-08-14T01:56:57;17.90;60.30
9125;DHT22;4597;48.730;9.114;2022-08-14T01:59:28;17.80;61.30
9125;DHT22;4597;48.730;9.114;2022-08-14T02:01:58;17.80;60.70
9125;DHT22;4597;48.730;9.114;2022-08-14T02:04:27;17.80;61.30
9125;DHT22;4597;48.730;9.114;2022-08-14T02:06:55;17.80;61.50
9125;DHT22;4597;48.730;9.114;2022-08-14T02:09:20;17.70;61.60
9125;DHT22;4597;48.730;9.114;2022-08-14T02:11:46;17.70;62.10
9125;DHT22;4597;48.730;9.114;2022-08-14T02:14:13;17.60;62.40
9125;DHT22;4597;48.730;9.114;2022-08-14T02:16:41;17.60;63.50
9125;DHT22;4597;48.730;9.114;2022-08-14T02:19:14;17.50;64.20
9125;DHT22;4597;48.730;9.114;2022-08-14T02:21:42;17.50;64.30
9125;DHT22;4597;48.730;9.114;2022-08-14T02:24:08;17.40;65.10
9125;DHT22;4597;48.730;9.114;2022-08-14T02:26:36;17.40;66.50
9125;DHT22;4597;48.730;9.114;2022-08-14T02:29:11;17.30;66.90
9125;DHT22;4597;48.730;9.114;2022-08-14T02:31:40;17.20;68.60
9125;DHT22;4597;48.730;9.114;2022-08-14T02:34:08;17.10;69.70
9125;DHT22;4597;48.730;9.114;2022-08-14T02:36:38;17.10;70.60
9125;DHT22;4597;48.730;9.114;2022-08-14T02:39:06;17.20;71.40
9125;DHT22;4597;48.730;9.114;2022-08-14T02:41:33;17.10;71.80
9125;DHT22;4597;48.730;9.114;2022-08-14T02:43:59;17.20;72.60
9125;DHT22;4597;48.730;9.114;2022-08-14T02:46:25;17.20;73.60
9125;DHT22;4597;48.730;9.114;2022-08-14T02:48:50;17.10;74.60
9125;DHT22;4597;48.730;9.114;2022-08-14T02:51:16;17.10;75.20
9125;DHT22;4597;48.730;9.114;2022-08-14T02:53:44;17.00;75.90
9125;DHT22;4597;48.730;9.114;2022-08-14T02:56:15;17.00;76.90
9125;DHT22;4597;48.730;9.114;2022-08-14T02:58:43;17.00;78.00
9125;DHT22;4597;48.730;9.114;2022-08-14T03:01:12;17.00;78.80
9125;DHT22;4597;48.730;9.114;2022-08-14T03:03:38;17.00;79.70
9125;DHT22;4597;48.730;9.114;2022-08-14T03:06:05;17.00;79.10
9125;DHT22;4597;48.730;9.114;2022-08-14T03:08:31;17.00;78.40
9125;DHT22;4597;48.730;9.114;2022-08-14T03:10:59;17.00;79.40
9125;DHT22;4597;48.730;9.114;2022-08-14T03:13:25;16.90;79.60
9125;DHT22;4597;48.730;9.114;2022-08-14T03:15:52;16.80;80.90
9125;DHT22;4597;48.730;9.114;2022-08-14T03:18:19;16.70;82.30
9125;DHT22;4597;48.730;9.114;2022-08-14T03:20:48;16.70;85.20
9125;DHT22;4597;48.730;9.114;2022-08-14T03:23:14;16.70;86.00
9125;DHT22;4597;48.730;9.114;2022-08-14T03:25:40;16.60;87.10
9125;DHT22;4597;48.730;9.114;2022-08-14T03:28:07;16.60;87.60
9125;DHT22;4597;48.730;9.114;2022-08-14T03:30:33;16.50;89.50
9125;DHT22;4597;48.730;9.114;2022-08-14T03:33:00;16.50;90.70
9125;DHT22;4597;48.730;9.114;2022-08-14T03:35:26;16.50;91.50
9125;DHT22;4597;48.730;9.114;2022-08-14T03:37:52;16.40;91.60
9125;DHT22;4597;48.730;9.114;2022-08-14T03:40:19;16.40;91.60
9125;DHT22;4597;48.730;9.114;2022-08-14T03:42:45;16.50;92.20
9125;DHT22;4597;48.730;9.114;2022-08-14T03:45:11;16.40;92.80
9125;DHT22;4597;48.730;9.114;2022-08-14T03:47:38;16.40;93.40
9125;DHT22;4597;48.730;9.114;2022-08-14T03:50:08;16.40;94.10
9125;DHT22;4597;48.730;9.114;2022-08-14T03:52:38;16.40;94.50
9125;DHT22;4597;48.730;9.114;2022-08-14T03:55:09;16.40;95.00
9125;DHT22;4597;48.730;9.114;2022-08-14T03:57:37;16.40;95.30
9125;DHT22;4597;48.730;9.114;2022-08-14T04:00:09;16.30;96.00
9125;DHT22;4597;48.730;9.114;2022-08-14T04:02:36;16.20;96.20
9125;DHT22;4597;48.730;9.114;2022-08-14T04:05:07;16.30;96.00
9125;DHT22;4597;48.730;9.114;2022-08-14T04:07:33;16.20;96.90
9125;DHT22;4597;48.730;9.114;2022-08-14T04:09:59;16.20;97.70
9125;DHT22;4597;48.730;9.114;2022-08-14T04:12:25;16.10;98.10
9125;DHT22;4597;48.730;9.114;2022-08-14T04:14:51;16.10;99.10
9125;DHT22;4597;48.730;9.114;2022-08-14T04:17:17;16.00;99.30
9125;DHT22;4597;48.730;9.114;2022-08-14T04:19:44;16.00;99.70
9125;DHT22;4597;48.730;9.114;2022-08-14T04:22:11;15.90;99.90
9125;DHT22;4597;48.730;9.114;2022-08-14T04:24:38;16.00;99.90
9125;DHT22;4597;48.730;9.114;2022-08-14T04:27:08;15.90;99.90
9125;DHT22;4597;48.730;9.114;2022-08-14T04:29:41;15.90;99.90
9125;DHT22;4597;48.730;9.114;2022-08-14T04:32:09;15.90;99.90
9125;DHT22;4597;48.730;9.114;2022-08-14T04:34:35;15.90;99.90
9125;DHT22;4597;48.730;9.114;2022-08-14T04:37:05;15.90;99.90
9125;DHT22;4597;48.730;9.114;2022-08-14T04:39:49;15.90;99.90
9125;DHT22;4597;48.730;9.114;2022-08-14T04:42:33;15.80;99.90
9125;DHT22;4597;48.730;9.114;2022-08-14T04:45:22;15.80;99.90
9125;DHT22;4597;48.730;9.114;2022-08-14T04:47:48;15.80;99.90
9125;DHT22;4597;48.730;9.114;2022-08-14T04:50:33;15.90;99.90
9125;DHT22;4597;48.730;9.114;2022-08-14T04:53:00;15.90;99.90
9125;DHT22;4597;48.730;9.114;2022-08-14T04:55:26;15.90;99.90
9125;DHT22;4597;48.730;9.114;2022-08-14T04:57:51;16.00;99.90
9125;DHT22;4597;48.730;9.114;2022-08-14T05:00:17;16.00;99.90
9125;DHT22;4597;48.730;9.114;2022-08-14T05:02:43;16.00;99.90
9125;DHT22;4597;48.730;9.114;2022-08-14T05:05:08;16.10;99.90
9125;DHT22;4597;48.730;9.114;2022-08-14T05:07:34;16.10;99.90
9125;DHT22;4597;48.730;9.114;2022-08-14T05:09:59;16.10;99.90
9125;DHT22;4597;48.730;9.114;2022-08-14T05:12:26;16.10;99.90
9125;DHT22;4597;48.730;9.114;2022-08-14T05:14:53;16.10;99.90
9125;DHT22;4597;48.730;9.114;2022-08-14T05:17:18;16.10;99.90
9125;DHT22;4597;48.730;9.114;2022-08-14T05:19:49;16.10;99.90
9125;DHT22;4597;48.730;9.114;2022-08-14T05:22:15;16.10;99.90
9125;DHT22;4597;48.730;9.114;2022-08-14T05:24:41;16.10;99.90
9125;DHT22;4597;48.730;9.114;2022-08-14T05:27:07;16.10;99.90
9125;DHT22;4597;48.730;9.114;2022-08-14T05:29:33;16.10;99.90
9125;DHT22;4597;48.730;9.114;2022-08-14T05:31:59;16.10;99.90
9125;DHT22;4597;48.730;9.114;2022-08-14T05:34:31;16.10;99.90
9125;DHT22;4597;48.730;9.114;2022-08-14T05:36:59;16.20;99.90
9125;DHT22;4597;48.730;9.114;2022-08-14T05:39:26;16.20;99.90
9125;DHT22;4597;48.730;9.114;2022-08-14T05:41:52;16.20;99.90
9125;DHT22;4597;48.730;9.114;2022-08-14T05:44:17;16.20;99.90
9125;DHT22;4597;48.730;9.114;2022-08-14T05:46:43;16.20;99.90
9125;DHT22;4597;48.730;9.114;2022-08-14T05:49:08;16.20;99.90
9125;DHT22;4597;48.730;9.114;2022-08-14T05:51:34;16.20;99.90
9125;DHT22;4597;48.730;9.114;2022-08-14T05:54:00;16.30;99.90
9125;DHT22;4597;48.730;9.114;2022-08-14T05:56:25;16.30;99.90
9125;DHT22;4597;48.730;9.114;2022-08-14T05:58:52;16.30;99.90
9125;DHT22;4597;48.730;9.114;2022-08-14T06:01:18;16.20;99.90
9125;DHT22;4597;48.730;9.114;2022-08-14T06:03:44;16.20;99.90
9125;DHT22;4597;48.730;9.114;2022-08-14T06:06:09;16.20;99.90
9125;DHT22;4597;48.730;9.114;2022-08-14T06:08:35;16.20;99.90
9125;DHT22;4597;48.730;9.114;2022-08-14T06:11:03;16.20;99.90
9125;DHT22;4597;48.730;9.114;2022-08-14T06:13:30;16.30;99.90
9125;DHT22;4597;48.730;9.114;2022-08-14T06:15:57;16.30;99.90
9125;DHT22;4597;48.730;9.114;2022-08-14T06:18:22;16.40;99.90
9125;DHT22;4597;48.730;9.114;2022-08-14T06:20:49;16.40;99.90
9125;DHT22;4597;48.730;9.114;2022-08-14T06:23:14;16.50;99.90
9125;DHT22;4597;48.730;9.114;2022-08-14T06:25:40;16.50;99.90
9125;DHT22;4597;48.730;9.114;2022-08-14T06:28:06;16.50;99.90
9125;DHT22;4597;48.730;9.114;2022-08-14T06:30:33;16.60;99.90
9125;DHT22;4597;48.730;9.114;2022-08-14T06:32:59;16.60;99.90
9125;DHT22;4597;48.730;9.114;2022-08-14T06:35:24;16.70;99.90
9125;DHT22;4597;48.730;9.114;2022-08-14T06:37:55;16.70;99.90
9125;DHT22;4597;48.730;9.114;2022-08-14T06:40:25;16.80;99.90
9125;DHT22;4597;48.730;9.114;2022-08-14T06:42:51;16.80;99.90
9125;DHT22;4597;48.730;9.114;2022-08-14T06:45:17;16.90;99.90
9125;DHT22;4597;48.730;9.114;2022-08-14T06:47:44;17.00;99.90
9125;DHT22;4597;48.730;9.114;2022-08-14T06:50:13;17.00;99.90
9125;DHT22;4597;48.730;9.114;2022-08-14T06:52:41;17.20;99.90
9125;DHT22;4597;48.730;9.114;2022-08-14T06:55:09;17.30;99.90
9125;DHT22;4597;48.730;9.114;2022-08-14T06:57:46;17.40;99.90
9125;DHT22;4597;48.730;9.114;2022-08-14T07:00:23;17.50;99.90
9125;DHT22;4597;48.730;9.114;2022-08-14T07:02:50;17.60;99.90
9125;DHT22;4597;48.730;9.114;2022-08-14T07:05:34;17.60;99.90
9125;DHT22;4597;48.730;9.114;2022-08-14T07:08:23;17.70;99.90
9125;DHT22;4597;48.730;9.114;2022-08-14T07:10:52;17.80;99.90
9125;DHT22;4597;48.730;9.114;2022-08-14T07:13:18;17.90;99.90
9125;DHT22;4597;48.730;9.114;2022-08-14T07:15:50;17.90;99.90
9125;DHT22;4597;48.730;9.114;2022-08-14T07:18:24;18.00;99.90
9125;DHT22;4597;48.730;9.114;2022-08-14T07:20:51;18.10;99.90
9125;DHT22;4597;48.730;9.114;2022-08-14T07:23:18;18.20;99.90
9125;DHT22;4597;48.730;9.114;2022-08-14T07:25:44;18.30;99.90
9125;DHT22;4597;48.730;9.114;2022-08-14T07:28:17;18.40;99.90
9125;DHT22;4597;48.730;9.114;2022-08-14T07:30:43;18.50;99.90
9125;DHT22;4597;48.730;9.114;2022-08-14T07:33:10;18.60;99.90
9125;DHT22;4597;48.730;9.114;2022-08-14T07:35:37;18.70;99.90
9125;DHT22;4597;48.730;9.114;2022-08-14T07:38:04;18.80;99.90
9125;DHT22;4597;48.730;9.114;2022-08-14T07:40:30;18.90;99.90
9125;DHT22;4597;48.730;9.114;2022-08-14T07:42:55;19.00;99.90
9125;DHT22;4597;48.730;9.114;2022-08-14T07:45:21;19.10;99.90
9125;DHT22;4597;48.730;9.114;2022-08-14T07:47:47;19.10;99.90
9125;DHT22;4597;48.730;9.114;2022-08-14T07:50:15;19.20;99.90
9125;DHT22;4597;48.730;9.114;2022-08-14T07:52:42;19.30;99.90
9125;DHT22;4597;48.730;9.114;2022-08-14T07:55:09;19.40;99.50
9125;DHT22;4597;48.730;9.114;2022-08-14T07:57:35;19.50;99.60
9125;DHT22;4597;48.730;9.114;2022-08-14T08:00:04;19.60;99.10
9125;DHT22;4597;48.730;9.114;2022-08-14T08:02:30;19.70;98.50
9125;DHT22;4597;48.730;9.114;2022-08-14T08:04:57;19.80;98.70
9125;DHT22;4597;48.730;9.114;2022-08-14T08:07:26;19.90;98.90
9125;DHT22;4597;48.730;9.114;2022-08-14T08:09:55;20.00;97.70
9125;DHT22;4597;48.730;9.114;2022-08-14T08:12:24;20.00;97.10
9125;DHT22;4597;48.730;9.114;2022-08-14T08:14:50;20.10;97.60
9125;DHT22;4597;48.730;9.114;2022-08-14T08:17:19;20.20;96.00
9125;DHT22;4597;48.730;9.114;2022-08-14T08:19:47;20.30;95.30
9125;DHT22;4597;48.730;9.114;2022-08-14T08:22:13;20.40;94.60
9125;DHT22;4597;48.730;9.114;2022-08-14T08:24:39;20.60;94.00
9125;DHT22;4597;48.730;9.114;2022-08-14T08:27:17;20.70;92.00
9125;DHT22;4597;48.730;9.114;2022-08-14T08:29:44;20.80;91.40
9125;DHT22;4597;48.730;9.114;2022-08-14T08:32:09;21.00;90.10
9125;DHT22;4597;48.730;9.114;2022-08-14T08:34:43;21.10;88.40
9125;DHT22;4597;48.730;9.114;2022-08-14T08:37:13;21.20;86.50
9125;DHT22;4597;48.730;9.114;2022-08-14T08:39:46;21.30;84.90
9125;DHT22;4597;48.730;9.114;2022-08-14T08:42:12;21.40;83.80
9125;DHT22;4597;48.730;9.114;2022-08-14T08:44:37;21.50;80.80
9125;DHT22;4597;48.730;9.114;2022-08-14T08:47:03;21.60;80.60
9125;DHT22;4597;48.730;9.114;2022-08-14T08:49:40;21.70;83.20
9125;DHT22;4597;48.730;9.114;2022-08-14T08:52:09;21.80;80.90
9125;DHT22;4597;48.730;9.114;2022-08-14T08:54:35;21.90;79.50
9125;DHT22;4597;48.730;9.114;2022-08-14T08:57:10;22.00;78.60
9125;DHT22;4597;48.730;9.114;2022-08-14T08:59:36;22.10;77.90
9125;DHT22;4597;48.730;9.114;2022-08-14T09:02:04;22.20;76.40
9125;DHT22;4597;48.730;9.114;2022-08-14T09:07:00;22.40;73.20
9125;DHT22;4597;48.730;9.114;2022-08-14T09:09:28;22.50;72.30
9125;DHT22;4597;48.730;9.114;2022-08-14T09:11:56;22.60;70.20
9125;DHT22;4597;48.730;9.114;2022-08-14T09:14:26;22.60;69.20
9125;DHT22;4597;48.730;9.114;2022-08-14T09:16:55;22.70;67.90
9125;DHT22;4597;48.730;9.114;2022-08-14T09:19:21;22.80;65.70
9125;DHT22;4597;48.730;9.114;2022-08-14T09:21:47;22.90;64.40
9125;DHT22;4597;48.730;9.114;2022-08-14T09:24:13;23.10;63.50
9125;DHT22;4597;48.730;9.114;2022-08-14T09:26:40;23.10;62.90
9125;DHT22;4597;48.730;9.114;2022-08-14T09:29:07;23.20;60.40
9125;DHT22;4597;48.730;9.114;2022-08-14T09:31:34;23.30;60.80
9125;DHT22;4597;48.730;9.114;2022-08-14T09:37:33;23.60;58.70
9125;DHT22;4597;48.730;9.114;2022-08-14T09:40:11;23.80;55.00
9125;DHT22;4597;48.730;9.114;2022-08-14T09:42:42;23.90;54.60
9125;DHT22;4597;48.730;9.114;2022-08-14T09:45:21;24.00;54.50
9125;DHT22;4597;48.730;9.114;2022-08-14T09:47:51;24.00;53.20
9125;DHT22;4597;48.730;9.114;2022-08-14T09:50:32;24.10;53.30
9125;DHT22;4597;48.730;9.114;2022-08-14T09:53:09;24.20;52.60
9125;DHT22;4597;48.730;9.114;2022-08-14T09:55:36;24.30;52.10
9125;DHT22;4597;48.730;9.114;2022-08-14T09:58:16;24.40;52.00
9125;DHT22;4597;48.730;9.114;2022-08-14T10:00:55;24.50;51.60
9125;DHT22;4597;48.730;9.114;2022-08-14T10:03:30;24.60;51.70
9125;DHT22;4597;48.730;9.114;2022-08-14T10:06:27;24.60;51.80
9125;DHT22;4597;48.730;9.114;2022-08-14T10:09:02;24.70;51.10
9125;DHT22;4597;48.730;9.114;2022-08-14T10:11:34;24.80;51.00
9125;DHT22;4597;48.730;9.114;2022-08-14T10:14:13;24.90;50.90
9125;DHT22;4597;48.730;9.114;2022-08-14T10:16:52;25.00;50.60
9125;DHT22;4597;48.730;9.114;2022-08-14T10:19:20;25.00;49.70
9125;DHT22;4597;48.730;9.114;2022-08-14T10:21:57;25.10;49.20
9125;DHT22;4597;48.730;9.114;2022-08-14T10:24:30;25.20;49.70
9125;DHT22;4597;48.730;9.114;2022-08-14T10:26:58;25.40;49.20
9125;DHT22;4597;48.730;9.114;2022-08-14T10:29:37;25.50;48.00
9125;DHT22;4597;48.730;9.114;2022-08-14T10:32:04;25.60;47.60
9125;DHT22;4597;48.730;9.114;2022-08-14T10:34:33;25.70;47.20
9125;DHT22;4597;48.730;9.114;2022-08-14T10:37:10;25.80;47.40
9125;DHT22;4597;48.730;9.114;2022-08-14T10:39:38;25.90;47.00
9125;DHT22;4597;48.730;9.114;2022-08-14T10:42:06;26.00;46.30
9125;DHT22;4597;48.730;9.114;2022-08-14T10:44:37;26.10;45.60
9125;DHT22;4597;48.730;9.114;2022-08-14T10:47:05;26.20;44.70
9125;DHT22;4597;48.730;9.114;2022-08-14T10:49:35;26.30;44.80
9125;DHT22;4597;48.730;9.114;2022-08-14T10:52:09;26.40;44.10
9125;DHT22;4597;48.730;9.114;2022-08-14T10:54:42;26.50;43.00
9125;DHT22;4597;48.730;9.114;2022-08-14T10:57:20;26.60;43.20
9125;DHT22;4597;48.730;9.114;2022-08-14T11:02:19;26.70;41.60
9125;DHT22;4597;48.730;9.114;2022-08-14T11:05:04;26.80;41.30
9125;DHT22;4597;48.730;9.114;2022-08-14T11:07:33;26.90;41.50
9125;DHT22;4597;48.730;9.114;2022-08-14T11:10:04;26.90;41.90
9125;DHT22;4597;48.730;9.114;2022-08-14T11:12:50;27.00;41.50
9125;DHT22;4597;48.730;9.114;2022-08-14T11:15:23;27.00;40.60
9125;DHT22;4597;48.730;9.114;2022-08-14T11:17:50;27.10;40.20
9125;DHT22;4597;48.730;9.114;2022-08-14T11:20:18;27.20;40.40
9125;DHT22;4597;48.730;9.114;2022-08-14T11:22:45;27.20;39.90
9125;DHT22;4597;48.730;9.114;2022-08-14T11:25:13;27.40;39.30
9125;DHT22;4597;48.730;9.114;2022-08-14T11:27:45;27.50;38.10
9125;DHT22;4597;48.730;9.114;2022-08-14T11:30:16;27.60;38.10
9125;DHT22;4597;48.730;9.114;2022-08-14T11:32:43;27.80;36.10
9125;DHT22;4597;48.730;9.114;2022-08-14T11:35:14;27.80;36.50
9125;DHT22;4597;48.730;9.114;2022-08-14T11:40:27;28.00;35.80
9125;DHT22;4597;48.730;9.114;2022-08-14T11:42:54;28.10;35.20
9125;DHT22;4597;48.730;9.114;2022-08-14T11:45:25;28.20;35.10
9125;DHT22;4597;48.730;9.114;2022-08-14T11:47:52;28.30;34.80
9125;DHT22;4597;48.730;9.114;2022-08-14T11:50:23;28.40;34.70
9125;DHT22;4597;48.730;9.114;2022-08-14T11:52:50;28.60;33.60
9125;DHT22;4597;48.730;9.114;2022-08-14T11:55:19;28.70;33.50
9125;DHT22;4597;48.730;9.114;2022-08-14T11:57:58;28.90;31.90
9125;DHT22;4597;48.730;9.114;2022-08-14T12:00:24;28.90;32.00
9125;DHT22;4597;48.730;9.114;2022-08-14T12:02:54;28.90;33.00
9125;DHT22;4597;48.730;9.114;2022-08-14T12:05:35;29.10;33.20
9125;DHT22;4597;48.730;9.114;2022-08-14T12:08:03;29.20;31.60
9125;DHT22;4597;48.730;9.114;2022-08-14T12:10:32;29.30;31.90
9125;DHT22;4597;48.730;9.114;2022-08-14T12:13:09;29.40;32.20
9125;DHT22;4597;48.730;9.114;2022-08-14T12:15:35;29.50;31.90
9125;DHT22;4597;48.730;9.114;2022-08-14T12:18:02;29.50;30.30
9125;DHT22;4597;48.730;9.114;2022-08-14T12:20:33;29.70;30.70
9125;DHT22;4597;48.730;9.114;2022-08-14T12:23:03;29.80;31.20
9125;DHT22;4597;48.730;9.114;2022-08-14T12:25:30;29.90;29.80
9125;DHT22;4597;48.730;9.114;2022-08-14T12:27:57;30.00;31.20
9125;DHT22;4597;48.730;9.114;2022-08-14T12:30:37;30.10;30.30
9125;DHT22;4597;48.730;9.114;2022-08-14T12:33:06;30.30;29.40
9125;DHT22;4597;48.730;9.114;2022-08-14T12:35:46;30.40;28.40
9125;DHT22;4597;48.730;9.114;2022-08-14T12:38:14;30.50;28.30
9125;DHT22;4597;48.730;9.114;2022-08-14T12:40:49;30.60;28.00
9125;DHT22;4597;48.730;9.114;2022-08-14T12:43:16;30.80;28.70
9125;DHT22;4597;48.730;9.114;2022-08-14T12:45:47;30.90;28.30
9125;DHT22;4597;48.730;9.114;2022-08-14T12:48:17;31.00;27.40
9125;DHT22;4597;48.730;9.114;2022-08-14T12:50:43;31.10;26.80
9125;DHT22;4597;48.730;9.114;2022-08-14T12:53:10;31.20;27.50
9125;DHT22;4597;48.730;9.114;2022-08-14T12:55:37;31.30;26.10
9125;DHT22;4597;48.730;9.114;2022-08-14T12:58:04;31.30;27.00
9125;DHT22;4597;48.730;9.114;2022-08-14T13:00:32;31.50;26.80
9125;DHT22;4597;48.730;9.114;2022-08-14T13:02:58;31.80;25.20
9125;DHT22;4597;48.730;9.114;2022-08-14T13:05:26;31.80;25.20
9125;DHT22;4597;48.730;9.114;2022-08-14T13:07:54;31.90;24.40
9125;DHT22;4597;48.730;9.114;2022-08-14T13:10:21;32.00;24.10
9125;DHT22;4597;48.730;9.114;2022-08-14T13:12:48;32.20;23.20
9125;DHT22;4597;48.730;9.114;2022-08-14T13:15:15;32.40;22.70
9125;DHT22;4597;48.730;9.114;2022-08-14T13:17:47;32.60;22.90
9125;DHT22;4597;48.730;9.114;2022-08-14T13:20:15;32.50;22.90
9125;DHT22;4597;48.730;9.114;2022-08-14T13:22:41;32.70;23.60
9125;DHT22;4597;48.730;9.114;2022-08-14T13:25:22;32.80;22.90
9125;DHT22;4597;48.730;9.114;2022-08-14T13:27:50;33.00;21.90
9125;DHT22;4597;48.730;9.114;2022-08-14T13:30:17;33.20;20.70
9125;DHT22;4597;48.730;9.114;2022-08-14T13:32:44;33.40;21.70
9125;DHT22;4597;48.730;9.114;2022-08-14T13:35:12;33.60;21.40
9125;DHT22;4597;48.730;9.114;2022-08-14T13:37:39;33.80;21.30
9125;DHT22;4597;48.730;9.114;2022-08-14T13:40:05;34.00;19.50
9125;DHT22;4597;48.730;9.114;2022-08-14T13:42:33;34.10;19.90
9125;DHT22;4597;48.730;9.114;2022-08-14T13:45:03;34.20;19.80
9125;DHT22;4597;48.730;9.114;2022-08-14T13:47:29;34.20;19.10
9125;DHT22;4597;48.730;9.114;2022-08-14T13:50:05;34.20;18.90
9125;DHT22;4597;48.730;9.114;2022-08-14T13:52:46;34.30;18.60
9125;DHT22;4597;48.730;9.114;2022-08-14T13:55:17;34.40;19.50
9125;DHT22;4597;48.730;9.114;2022-08-14T13:57:43;34.60;19.70
9125;DHT22;4597;48.730;9.114;2022-08-14T14:00:13;34.70;19.00
9125;DHT22;4597;48.730;9.114;2022-08-14T14:02:40;34.80;19.30
9125;DHT22;4597;48.730;9.114;2022-08-14T14:05:07;34.90;18.60
9125;DHT22;4597;48.730;9.114;2022-08-14T14:07:34;35.10;18.90
9125;DHT22;4597;48.730;9.114;2022-08-14T14:10:03;35.30;19.10
9125;DHT22;4597;48.730;9.114;2022-08-14T14:12:30;35.70;17.30
9125;DHT22;4597;48.730;9.114;2022-08-14T14:14:58;36.10;17.70
9125;DHT22;4597;48.730;9.114;2022-08-14T14:17:24;36.40;16.90
9125;DHT22;4597;48.730;9.114;2022-08-14T14:19:51;36.90;17.30
9125;DHT22;4597;48.730;9.114;2022-08-14T14:22:16;37.40;17.70
9125;DHT22;4597;48.730;9.114;2022-08-14T14:24:43;37.70;15.20
9125;DHT22;4597;48.730;9.114;2022-08-14T14:27:09;38.00;14.40
9125;DHT22;4597;48.730;9.114;2022-08-14T14:29:37;38.30;14.10
9125;DHT22;4597;48.730;9.114;2022-08-14T14:32:03;38.50;13.80
9125;DHT22;4597;48.730;9.114;2022-08-14T14:34:30;38.50;13.90
9125;DHT22;4597;48.730;9.114;2022-08-14T14:36:59;38.90;13.90
9125;DHT22;4597;48.730;9.114;2022-08-14T14:39:31;39.20;13.20
9125;DHT22;4597;48.730;9.114;2022-08-14T14:41:58;40.20;12.20
9125;DHT22;4597;48.730;9.114;2022-08-14T14:44:30;40.90;11.80
9125;DHT22;4597;48.730;9.114;2022-08-14T14:46:57;41.00;11.00
9125;DHT22;4597;48.730;9.114;2022-08-14T14:49:25;40.80;10.50
9125;DHT22;4597;48.730;9.114;2022-08-14T14:51:51;40.20;10.70
9125;DHT22;4597;48.730;9.114;2022-08-14T14:54:19;39.60;11.20
9125;DHT22;4597;48.730;9.114;2022-08-14T14:56:46;39.30;11.80
9125;DHT22;4597;48.730;9.114;2022-08-14T14:59:12;39.00;12.80
9125;DHT22;4597;48.730;9.114;2022-08-14T15:01:44;38.70;12.80
9125;DHT22;4597;48.730;9.114;2022-08-14T15:04:11;38.60;13.00
9125;DHT22;4597;48.730;9.114;2022-08-14T15:06:37;38.30;13.00
9125;DHT22;4597;48.730;9.114;2022-08-14T15:09:03;38.20;12.20
9125;DHT22;4597;48.730;9.114;2022-08-14T15:11:29;38.40;13.50
9125;DHT22;4597;48.730;9.114;2022-08-14T15:13:54;38.50;12.80
9125;DHT22;4597;48.730;9.114;2022-08-14T15:16:20;38.50;12.30
9125;DHT22;4597;48.730;9.114;2022-08-14T15:18:47;38.50;12.70
9125;DHT22;4597;48.730;9.114;2022-08-14T15:21:13;38.20;11.90
9125;DHT22;4597;48.730;9.114;2022-08-14T15:23:39;37.50;12.70
9125;DHT22;4597;48.730;9.114;2022-08-14T15:26:06;37.10;14.00
9125;DHT22;4597;48.730;9.114;2022-08-14T15:28:32;36.50;14.00
9125;DHT22;4597;48.730;9.114;2022-08-14T15:31:01;35.90;14.60
9125;DHT22;4597;48.730;9.114;2022-08-14T15:33:27;35.50;14.40
9125;DHT22;4597;48.730;9.114;2022-08-14T15:36:11;35.10;15.10
9125;DHT22;4597;48.730;9.114;2022-08-14T15:38:37;34.90;14.10
9125;DHT22;4597;48.730;9.114;2022-08-14T15:41:03;34.90;15.70
9125;DHT22;4597;48.730;9.114;2022-08-14T15:43:31;34.90;15.80
9125;DHT22;4597;48.730;9.114;2022-08-14T15:46:02;35.00;16.50
9125;DHT22;4597;48.730;9.114;2022-08-14T15:48:31;35.20;16.30
9125;DHT22;4597;48.730;9.114;2022-08-14T15:50:59;35.20;16.10
9125;DHT22;4597;48.730;9.114;2022-08-14T15:53:25;35.00;15.50
9125;DHT22;4597;48.730;9.114;2022-08-14T15:55:52;34.90;15.90
9125;DHT22;4597;48.730;9.114;2022-08-14T15:58:19;34.70;16.40
9125;DHT22;4597;48.730;9.114;2022-08-14T16:00:45;34.50;14.70
9125;DHT22;4597;48.730;9.114;2022-08-14T16:03:29;34.30;16.10
9125;DHT22;4597;48.730;9.114;2022-08-14T16:05:55;34.30;16.40
9125;DHT22;4597;48.730;9.114;2022-08-14T16:08:21;34.30;16.90
9125;DHT22;4597;48.730;9.114;2022-08-14T16:10:47;34.30;16.30
9125;DHT22;4597;48.730;9.114;2022-08-14T16:13:16;34.40;17.70
9125;DHT22;4597;48.730;9.114;2022-08-14T16:15:42;34.30;16.70
9125;DHT22;4597;48.730;9.114;2022-08-14T16:18:13;34.20;16.00
9125;DHT22;4597;48.730;9.114;2022-08-14T16:20:44;34.10;15.50
9125;DHT22;4597;48.730;9.114;2022-08-14T16:23:16;34.10;16.10